sensor_id;sensor_type;location;lat;lon;timestamp;P1;durP1;ratioP1;P2;durP2;ratioP2
3561;SDS011;1795;52.074;4.754;2022-12-22T00:00:57;33.90;;;20.77;;
3561;SDS011;1795;52.074;4.754;2022-12-22T00:03:43;31.20;;;20.00;;
3561;SDS011;1795;52.074;4.754;2022-12-22T00:06:29;29.60;;;19.55;;
3561;SDS011;1795;52.074;4.754;2022-12-22T00:09:15;36.65;;;23.05;;
3561;SDS011;1795;52.074;4.754;2022-12-22T00:12:00;34.03;;;20.83;;
3561;SDS011;1795;52.074;4.754;2022-12-22T00:14:46;29.65;;;19.38;;
3561;SDS011;1795;52.074;4.754;2022-12-22T00:17:33;30.60;;;19.73;;
3561;SDS011;1795;52.074;4.754;2022-12-22T00:20:19;34.50;;;21.85;;
3561;SDS011;1795;52.074;4.754;2022-12-22T00:23:05;33.13;;;21.25;;
3561;SDS011;1795;52.074;4.754;2022-12-22T00:25:54;29.23;;;19.75;;
3561;SDS011;1795;52.074;4.754;2022-12-22T00:28:39;32.15;;;19.98;;
3561;SDS011;1795;52.074;4.754;2022-12-22T00:31:25;33.38;;;20.80;;
3561;SDS011;1795;52.074;4.754;2022-12-22T00:34:12;35.40;;;22.05;;
3561;SDS011;1795;52.074;4.754;2022-12-22T00:36:59;30.50;;;19.13;;
3561;SDS011;1795;52.074;4.754;2022-12-22T00:39:45;29.30;;;19.37;;
3561;SDS011;1795;52.074;4.754;2022-12-22T00:42:32;33.00;;;21.23;;
3561;SDS011;1795;52.074;4.754;2022-12-22T00:45:17;31.40;;;20.77;;
3561;SDS011;1795;52.074;4.754;2022-12-22T00:48:03;29.90;;;20.05;;
3561;SDS011;1795;52.074;4.754;2022-12-22T00:50:52;33.38;;;21.95;;
3561;SDS011;1795;52.074;4.754;2022-12-22T00:53:38;37.27;;;21.77;;
3561;SDS011;1795;52.074;4.754;2022-12-22T00:56:23;34.35;;;21.08;;
3561;SDS011;1795;52.074;4.754;2022-12-22T00:59:10;37.10;;;22.40;;
3561;SDS011;1795;52.074;4.754;2022-12-22T01:01:56;32.13;;;21.33;;
3561;SDS011;1795;52.074;4.754;2022-12-22T01:04:42;30.27;;;19.40;;
3561;SDS011;1795;52.074;4.754;2022-12-22T01:07:27;34.20;;;21.40;;
3561;SDS011;1795;52.074;4.754;2022-12-22T01:10:13;32.75;;;22.38;;
3561;SDS011;1795;52.074;4.754;2022-12-22T01:13:00;31.87;;;21.40;;
3561;SDS011;1795;52.074;4.754;2022-12-22T01:15:47;34.97;;;22.05;;
3561;SDS011;1795;52.074;4.754;2022-12-22T01:18:32;38.60;;;22.90;;
3561;SDS011;1795;52.074;4.754;2022-12-22T01:21:17;34.10;;;21.75;;
3561;SDS011;1795;52.074;4.754;2022-12-22T01:24:07;38.60;;;23.07;;
3561;SDS011;1795;52.074;4.754;2022-12-22T01:26:55;35.28;;;21.15;;
3561;SDS011;1795;52.074;4.754;2022-12-22T01:29:40;39.80;;;23.38;;
3561;SDS011;1795;52.074;4.754;2022-12-22T01:32:27;34.85;;;22.13;;
3561;SDS011;1795;52.074;4.754;2022-12-22T01:35:16;37.80;;;22.40;;
3561;SDS011;1795;52.074;4.754;2022-12-22T01:38:04;36.10;;;22.70;;
3561;SDS011;1795;52.074;4.754;2022-12-22T01:40:50;35.13;;;22.05;;
3561;SDS011;1795;52.074;4.754;2022-12-22T01:43:37;38.00;;;23.27;;
3561;SDS011;1795;52.074;4.754;2022-12-22T01:46:23;36.15;;;22.38;;
3561;SDS011;1795;52.074;4.754;2022-12-22T01:49:12;38.15;;;22.73;;
3561;SDS011;1795;52.074;4.754;2022-12-22T01:51:59;37.33;;;23.20;;
3561;SDS011;1795;52.074;4.754;2022-12-22T01:54:46;36.75;;;23.30;;
3561;SDS011;1795;52.074;4.754;2022-12-22T01:57:33;38.60;;;23.55;;
3561;SDS011;1795;52.074;4.754;2022-12-22T02:00:20;42.20;;;22.40;;
3561;SDS011;1795;52.074;4.754;2022-12-22T02:05:53;35.83;;;23.23;;
3561;SDS011;1795;52.074;4.754;2022-12-22T02:08:45;33.83;;;21.80;;
3561;SDS011;1795;52.074;4.754;2022-12-22T02:11:44;35.00;;;22.58;;
3561;SDS011;1795;52.074;4.754;2022-12-22T02:14:39;38.37;;;22.93;;
3561;SDS011;1795;52.074;4.754;2022-12-22T02:17:30;38.53;;;23.40;;
3561;SDS011;1795;52.074;4.754;2022-12-22T02:20:28;35.00;;;22.27;;
3561;SDS011;1795;52.074;4.754;2022-12-22T02:23:25;38.67;;;22.00;;
3561;SDS011;1795;52.074;4.754;2022-12-22T02:26:24;34.50;;;21.98;;
3561;SDS011;1795;52.074;4.754;2022-12-22T02:29:13;35.63;;;22.90;;
3561;SDS011;1795;52.074;4.754;2022-12-22T02:32:02;37.38;;;22.42;;
3561;SDS011;1795;52.074;4.754;2022-12-22T02:34:48;34.50;;;21.92;;
3561;SDS011;1795;52.074;4.754;2022-12-22T02:37:35;37.33;;;22.02;;
3561;SDS011;1795;52.074;4.754;2022-12-22T02:40:28;32.78;;;22.05;;
3561;SDS011;1795;52.074;4.754;2022-12-22T02:43:23;36.77;;;22.50;;
3561;SDS011;1795;52.074;4.754;2022-12-22T02:46:27;38.05;;;22.45;;
3561;SDS011;1795;52.074;4.754;2022-12-22T02:49:18;33.85;;;20.88;;
3561;SDS011;1795;52.074;4.754;2022-12-22T02:52:09;39.38;;;23.52;;
3561;SDS011;1795;52.074;4.754;2022-12-22T02:54:59;36.07;;;21.93;;
3561;SDS011;1795;52.074;4.754;2022-12-22T02:57:45;36.75;;;22.23;;
3561;SDS011;1795;52.074;4.754;2022-12-22T03:00:35;39.17;;;23.00;;
3561;SDS011;1795;52.074;4.754;2022-12-22T03:03:20;38.88;;;23.98;;
3561;SDS011;1795;52.074;4.754;2022-12-22T03:06:06;40.23;;;23.13;;
3561;SDS011;1795;52.074;4.754;2022-12-22T03:08:52;39.33;;;22.80;;
3561;SDS011;1795;52.074;4.754;2022-12-22T03:11:37;38.55;;;23.60;;
3561;SDS011;1795;52.074;4.754;2022-12-22T03:14:23;40.90;;;23.10;;
3561;SDS011;1795;52.074;4.754;2022-12-22T03:17:10;38.08;;;22.25;;
3561;SDS011;1795;52.074;4.754;2022-12-22T03:19:55;41.17;;;24.38;;
3561;SDS011;1795;52.074;4.754;2022-12-22T03:22:41;37.92;;;22.75;;
3561;SDS011;1795;52.074;4.754;2022-12-22T03:25:26;39.03;;;22.52;;
3561;SDS011;1795;52.074;4.754;2022-12-22T03:28:12;38.87;;;22.43;;
3561;SDS011;1795;52.074;4.754;2022-12-22T03:30:40;40.20;;;22.75;;
3561;SDS011;1795;52.074;4.754;2022-12-22T03:33:09;35.90;;;23.05;;
3561;SDS011;1795;52.074;4.754;2022-12-22T03:35:38;40.45;;;22.40;;
3561;SDS011;1795;52.074;4.754;2022-12-22T03:38:06;37.38;;;22.08;;
3561;SDS011;1795;52.074;4.754;2022-12-22T03:40:34;39.53;;;23.13;;
3561;SDS011;1795;52.074;4.754;2022-12-22T03:43:02;40.85;;;23.70;;
3561;SDS011;1795;52.074;4.754;2022-12-22T03:45:52;39.58;;;22.45;;
3561;SDS011;1795;52.074;4.754;2022-12-22T03:48:39;37.47;;;22.25;;
3561;SDS011;1795;52.074;4.754;2022-12-22T03:51:08;42.72;;;22.75;;
3561;SDS011;1795;52.074;4.754;2022-12-22T03:53:36;41.20;;;21.63;;
3561;SDS011;1795;52.074;4.754;2022-12-22T03:56:04;41.05;;;24.17;;
3561;SDS011;1795;52.074;4.754;2022-12-22T03:58:33;39.33;;;22.92;;
3561;SDS011;1795;52.074;4.754;2022-12-22T04:01:04;35.60;;;21.08;;
3561;SDS011;1795;52.074;4.754;2022-12-22T04:03:33;36.75;;;20.92;;
3561;SDS011;1795;52.074;4.754;2022-12-22T04:06:02;34.53;;;20.83;;
3561;SDS011;1795;52.074;4.754;2022-12-22T04:08:30;37.70;;;21.80;;
3561;SDS011;1795;52.074;4.754;2022-12-22T04:10:58;39.25;;;21.70;;
3561;SDS011;1795;52.074;4.754;2022-12-22T04:13:44;44.20;;;22.23;;
3561;SDS011;1795;52.074;4.754;2022-12-22T04:16:12;37.53;;;21.57;;
3561;SDS011;1795;52.074;4.754;2022-12-22T04:18:40;36.80;;;20.48;;
3561;SDS011;1795;52.074;4.754;2022-12-22T04:21:09;45.10;;;21.90;;
3561;SDS011;1795;52.074;4.754;2022-12-22T04:23:37;41.13;;;20.92;;
3561;SDS011;1795;52.074;4.754;2022-12-22T04:26:05;44.95;;;20.58;;
3561;SDS011;1795;52.074;4.754;2022-12-22T04:28:33;38.30;;;21.10;;
3561;SDS011;1795;52.074;4.754;2022-12-22T04:31:01;41.38;;;21.45;;
3561;SDS011;1795;52.074;4.754;2022-12-22T04:33:29;46.00;;;22.42;;
3561;SDS011;1795;52.074;4.754;2022-12-22T04:35:57;41.45;;;21.40;;
3561;SDS011;1795;52.074;4.754;2022-12-22T04:38:26;50.97;;;22.85;;
3561;SDS011;1795;52.074;4.754;2022-12-22T04:40:54;45.17;;;22.23;;
3561;SDS011;1795;52.074;4.754;2022-12-22T04:43:22;47.78;;;21.73;;
3561;SDS011;1795;52.074;4.754;2022-12-22T04:45:51;43.08;;;21.50;;
3561;SDS011;1795;52.074;4.754;2022-12-22T04:48:19;49.45;;;22.65;;
3561;SDS011;1795;52.074;4.754;2022-12-22T04:50:48;44.90;;;22.40;;
3561;SDS011;1795;52.074;4.754;2022-12-22T04:53:17;44.37;;;21.67;;
3561;SDS011;1795;52.074;4.754;2022-12-22T04:55:47;54.10;;;23.02;;
3561;SDS011;1795;52.074;4.754;2022-12-22T04:58:16;52.72;;;25.25;;
3561;SDS011;1795;52.074;4.754;2022-12-22T05:00:44;39.23;;;20.47;;
3561;SDS011;1795;52.074;4.754;2022-12-22T05:03:12;49.63;;;24.23;;
3561;SDS011;1795;52.074;4.754;2022-12-22T05:05:40;48.72;;;22.65;;
3561;SDS011;1795;52.074;4.754;2022-12-22T05:08:08;44.28;;;21.63;;
3561;SDS011;1795;52.074;4.754;2022-12-22T05:10:36;48.00;;;22.52;;
3561;SDS011;1795;52.074;4.754;2022-12-22T05:13:06;53.13;;;25.80;;
3561;SDS011;1795;52.074;4.754;2022-12-22T05:15:34;48.90;;;24.38;;
3561;SDS011;1795;52.074;4.754;2022-12-22T05:18:02;59.70;;;25.40;;
3561;SDS011;1795;52.074;4.754;2022-12-22T05:20:31;59.40;;;25.33;;
3561;SDS011;1795;52.074;4.754;2022-12-22T05:23:01;52.70;;;23.80;;
3561;SDS011;1795;52.074;4.754;2022-12-22T05:25:29;47.97;;;22.52;;
3561;SDS011;1795;52.074;4.754;2022-12-22T05:28:00;50.45;;;24.05;;
3561;SDS011;1795;52.074;4.754;2022-12-22T05:30:30;46.50;;;23.55;;
3561;SDS011;1795;52.074;4.754;2022-12-22T05:32:58;48.20;;;22.55;;
3561;SDS011;1795;52.074;4.754;2022-12-22T05:35:26;48.40;;;22.40;;
3561;SDS011;1795;52.074;4.754;2022-12-22T05:37:54;45.28;;;21.77;;
3561;SDS011;1795;52.074;4.754;2022-12-22T05:40:22;47.75;;;22.70;;
3561;SDS011;1795;52.074;4.754;2022-12-22T05:42:50;49.40;;;21.73;;
3561;SDS011;1795;52.074;4.754;2022-12-22T05:45:18;46.85;;;22.35;;
3561;SDS011;1795;52.074;4.754;2022-12-22T05:47:49;48.40;;;21.93;;
3561;SDS011;1795;52.074;4.754;2022-12-22T05:50:19;47.53;;;22.00;;
3561;SDS011;1795;52.074;4.754;2022-12-22T05:52:48;50.35;;;23.05;;
3561;SDS011;1795;52.074;4.754;2022-12-22T05:55:16;51.67;;;21.92;;
3561;SDS011;1795;52.074;4.754;2022-12-22T05:57:45;44.38;;;19.98;;
3561;SDS011;1795;52.074;4.754;2022-12-22T06:00:13;47.00;;;19.25;;
3561;SDS011;1795;52.074;4.754;2022-12-22T06:02:43;47.28;;;18.55;;
3561;SDS011;1795;52.074;4.754;2022-12-22T06:05:13;47.65;;;19.67;;
3561;SDS011;1795;52.074;4.754;2022-12-22T06:07:41;40.50;;;18.73;;
3561;SDS011;1795;52.074;4.754;2022-12-22T06:10:09;43.75;;;17.92;;
3561;SDS011;1795;52.074;4.754;2022-12-22T06:12:38;46.38;;;17.67;;
3561;SDS011;1795;52.074;4.754;2022-12-22T06:15:07;37.28;;;14.93;;
3561;SDS011;1795;52.074;4.754;2022-12-22T06:17:37;39.75;;;16.20;;
3561;SDS011;1795;52.074;4.754;2022-12-22T06:20:11;36.53;;;15.60;;
3561;SDS011;1795;52.074;4.754;2022-12-22T06:22:40;35.80;;;14.93;;
3561;SDS011;1795;52.074;4.754;2022-12-22T06:25:08;38.80;;;13.65;;
3561;SDS011;1795;52.074;4.754;2022-12-22T06:27:43;37.90;;;14.10;;
3561;SDS011;1795;52.074;4.754;2022-12-22T06:30:12;32.60;;;13.70;;
3561;SDS011;1795;52.074;4.754;2022-12-22T06:32:41;32.00;;;12.68;;
3561;SDS011;1795;52.074;4.754;2022-12-22T06:35:09;28.05;;;11.95;;
3561;SDS011;1795;52.074;4.754;2022-12-22T06:37:38;28.90;;;11.98;;
3561;SDS011;1795;52.074;4.754;2022-12-22T06:40:07;30.35;;;12.45;;
3561;SDS011;1795;52.074;4.754;2022-12-22T06:42:35;31.85;;;11.40;;
3561;SDS011;1795;52.074;4.754;2022-12-22T06:45:24;26.67;;;10.60;;
3561;SDS011;1795;52.074;4.754;2022-12-22T06:47:52;26.33;;;10.77;;
3561;SDS011;1795;52.074;4.754;2022-12-22T06:50:20;24.75;;;10.55;;
3561;SDS011;1795;52.074;4.754;2022-12-22T06:52:49;24.98;;;10.13;;
3561;SDS011;1795;52.074;4.754;2022-12-22T06:55:17;26.13;;;9.88;;
3561;SDS011;1795;52.074;4.754;2022-12-22T06:57:45;20.85;;;9.35;;
3561;SDS011;1795;52.074;4.754;2022-12-22T07:00:14;19.67;;;8.57;;
3561;SDS011;1795;52.074;4.754;2022-12-22T07:02:42;22.85;;;10.40;;
3561;SDS011;1795;52.074;4.754;2022-12-22T07:05:10;18.83;;;8.90;;
3561;SDS011;1795;52.074;4.754;2022-12-22T07:07:38;21.73;;;9.70;;
3561;SDS011;1795;52.074;4.754;2022-12-22T07:10:08;23.73;;;9.75;;
3561;SDS011;1795;52.074;4.754;2022-12-22T07:12:36;19.77;;;9.80;;
3561;SDS011;1795;52.074;4.754;2022-12-22T07:15:05;23.30;;;9.60;;
3561;SDS011;1795;52.074;4.754;2022-12-22T07:17:34;19.08;;;9.63;;
3561;SDS011;1795;52.074;4.754;2022-12-22T07:20:02;21.30;;;8.65;;
3561;SDS011;1795;52.074;4.754;2022-12-22T07:22:31;24.05;;;9.50;;
3561;SDS011;1795;52.074;4.754;2022-12-22T07:24:59;25.45;;;9.85;;
3561;SDS011;1795;52.074;4.754;2022-12-22T07:27:28;20.38;;;9.98;;
3561;SDS011;1795;52.074;4.754;2022-12-22T07:29:56;25.63;;;10.18;;
3561;SDS011;1795;52.074;4.754;2022-12-22T07:32:24;24.30;;;10.82;;
3561;SDS011;1795;52.074;4.754;2022-12-22T07:34:52;23.95;;;10.80;;
3561;SDS011;1795;52.074;4.754;2022-12-22T07:37:26;22.92;;;10.30;;
3561;SDS011;1795;52.074;4.754;2022-12-22T07:39:54;21.23;;;9.63;;
3561;SDS011;1795;52.074;4.754;2022-12-22T07:42:22;23.83;;;10.57;;
3561;SDS011;1795;52.074;4.754;2022-12-22T07:45:09;26.33;;;10.80;;
3561;SDS011;1795;52.074;4.754;2022-12-22T07:47:37;20.85;;;10.00;;
3561;SDS011;1795;52.074;4.754;2022-12-22T07:50:06;21.55;;;9.95;;
3561;SDS011;1795;52.074;4.754;2022-12-22T07:52:53;19.98;;;9.95;;
3561;SDS011;1795;52.074;4.754;2022-12-22T07:55:23;21.17;;;9.82;;
3561;SDS011;1795;52.074;4.754;2022-12-22T07:57:52;19.20;;;9.52;;
3561;SDS011;1795;52.074;4.754;2022-12-22T08:00:23;23.05;;;10.30;;
3561;SDS011;1795;52.074;4.754;2022-12-22T08:02:51;15.05;;;8.90;;
3561;SDS011;1795;52.074;4.754;2022-12-22T08:05:21;20.15;;;9.68;;
3561;SDS011;1795;52.074;4.754;2022-12-22T08:07:50;19.35;;;9.00;;
3561;SDS011;1795;52.074;4.754;2022-12-22T08:10:18;22.15;;;9.57;;
3561;SDS011;1795;52.074;4.754;2022-12-22T08:12:47;19.00;;;10.00;;
3561;SDS011;1795;52.074;4.754;2022-12-22T08:15:15;17.70;;;9.40;;
3561;SDS011;1795;52.074;4.754;2022-12-22T08:17:44;19.75;;;9.13;;
3561;SDS011;1795;52.074;4.754;2022-12-22T08:20:12;16.98;;;9.00;;
3561;SDS011;1795;52.074;4.754;2022-12-22T08:22:40;16.87;;;9.63;;
3561;SDS011;1795;52.074;4.754;2022-12-22T08:25:08;18.80;;;9.53;;
3561;SDS011;1795;52.074;4.754;2022-12-22T08:27:37;16.60;;;9.93;;
3561;SDS011;1795;52.074;4.754;2022-12-22T08:30:10;16.40;;;9.18;;
3561;SDS011;1795;52.074;4.754;2022-12-22T08:32:39;18.52;;;9.30;;
3561;SDS011;1795;52.074;4.754;2022-12-22T08:35:10;18.70;;;9.53;;
3561;SDS011;1795;52.074;4.754;2022-12-22T08:37:38;17.58;;;9.80;;
3561;SDS011;1795;52.074;4.754;2022-12-22T08:40:11;22.67;;;10.40;;
3561;SDS011;1795;52.074;4.754;2022-12-22T08:42:41;19.75;;;9.98;;
3561;SDS011;1795;52.074;4.754;2022-12-22T08:45:10;21.17;;;10.23;;
3561;SDS011;1795;52.074;4.754;2022-12-22T08:47:38;20.70;;;10.57;;
3561;SDS011;1795;52.074;4.754;2022-12-22T08:50:06;17.58;;;10.07;;
3561;SDS011;1795;52.074;4.754;2022-12-22T08:52:36;23.92;;;10.23;;
3561;SDS011;1795;52.074;4.754;2022-12-22T08:55:05;21.67;;;9.93;;
3561;SDS011;1795;52.074;4.754;2022-12-22T08:57:34;17.13;;;10.07;;
3561;SDS011;1795;52.074;4.754;2022-12-22T09:00:03;18.23;;;10.27;;
3561;SDS011;1795;52.074;4.754;2022-12-22T09:02:34;16.48;;;9.80;;
3561;SDS011;1795;52.074;4.754;2022-12-22T09:05:02;19.23;;;10.13;;
3561;SDS011;1795;52.074;4.754;2022-12-22T09:07:30;22.48;;;8.90;;
3561;SDS011;1795;52.074;4.754;2022-12-22T09:10:00;16.50;;;8.68;;
3561;SDS011;1795;52.074;4.754;2022-12-22T09:12:28;17.02;;;8.60;;
3561;SDS011;1795;52.074;4.754;2022-12-22T09:14:56;15.15;;;8.73;;
3561;SDS011;1795;52.074;4.754;2022-12-22T09:17:24;21.65;;;9.45;;
3561;SDS011;1795;52.074;4.754;2022-12-22T09:19:52;17.02;;;8.75;;
3561;SDS011;1795;52.074;4.754;2022-12-22T09:22:20;13.88;;;7.43;;
3561;SDS011;1795;52.074;4.754;2022-12-22T09:24:53;17.40;;;8.50;;
3561;SDS011;1795;52.074;4.754;2022-12-22T09:27:23;18.00;;;8.88;;
3561;SDS011;1795;52.074;4.754;2022-12-22T09:29:51;17.98;;;8.40;;
3561;SDS011;1795;52.074;4.754;2022-12-22T09:32:19;16.63;;;7.95;;
3561;SDS011;1795;52.074;4.754;2022-12-22T09:34:47;16.67;;;8.32;;
3561;SDS011;1795;52.074;4.754;2022-12-22T09:37:15;15.60;;;8.03;;
3561;SDS011;1795;52.074;4.754;2022-12-22T09:39:44;12.35;;;7.30;;
3561;SDS011;1795;52.074;4.754;2022-12-22T09:42:13;14.23;;;6.32;;
3561;SDS011;1795;52.074;4.754;2022-12-22T09:44:46;8.85;;;5.85;;
3561;SDS011;1795;52.074;4.754;2022-12-22T09:47:17;10.95;;;6.38;;
3561;SDS011;1795;52.074;4.754;2022-12-22T09:49:50;10.45;;;6.47;;
3561;SDS011;1795;52.074;4.754;2022-12-22T09:52:23;9.38;;;5.70;;
3561;SDS011;1795;52.074;4.754;2022-12-22T09:54:56;17.27;;;6.05;;
3561;SDS011;1795;52.074;4.754;2022-12-22T09:57:26;11.32;;;5.70;;
3561;SDS011;1795;52.074;4.754;2022-12-22T09:59:58;12.15;;;7.25;;
3561;SDS011;1795;52.074;4.754;2022-12-22T10:02:33;9.10;;;5.85;;
3561;SDS011;1795;52.074;4.754;2022-12-22T10:05:14;11.35;;;6.15;;
3561;SDS011;1795;52.074;4.754;2022-12-22T10:07:57;11.38;;;6.90;;
3561;SDS011;1795;52.074;4.754;2022-12-22T10:10:27;10.95;;;6.38;;
3561;SDS011;1795;52.074;4.754;2022-12-22T10:12:57;14.93;;;6.40;;
3561;SDS011;1795;52.074;4.754;2022-12-22T10:15:30;10.70;;;5.90;;
3561;SDS011;1795;52.074;4.754;2022-12-22T10:18:07;9.77;;;6.68;;
3561;SDS011;1795;52.074;4.754;2022-12-22T10:20:37;15.18;;;6.40;;
3561;SDS011;1795;52.074;4.754;2022-12-22T10:23:12;10.70;;;6.20;;
3561;SDS011;1795;52.074;4.754;2022-12-22T10:25:44;15.55;;;6.10;;
3561;SDS011;1795;52.074;4.754;2022-12-22T10:28:46;9.83;;;5.47;;
3561;SDS011;1795;52.074;4.754;2022-12-22T10:31:18;12.93;;;5.97;;
3561;SDS011;1795;52.074;4.754;2022-12-22T10:33:48;11.07;;;5.80;;
3561;SDS011;1795;52.074;4.754;2022-12-22T10:36:19;8.15;;;5.38;;
3561;SDS011;1795;52.074;4.754;2022-12-22T10:38:55;8.90;;;4.60;;
3561;SDS011;1795;52.074;4.754;2022-12-22T10:41:26;9.80;;;4.72;;
3561;SDS011;1795;52.074;4.754;2022-12-22T10:43:56;13.80;;;5.53;;
3561;SDS011;1795;52.074;4.754;2022-12-22T10:46:36;16.83;;;5.18;;
3561;SDS011;1795;52.074;4.754;2022-12-22T10:49:07;13.82;;;4.00;;
3561;SDS011;1795;52.074;4.754;2022-12-22T10:51:42;10.85;;;4.32;;
3561;SDS011;1795;52.074;4.754;2022-12-22T10:54:25;8.87;;;5.20;;
3561;SDS011;1795;52.074;4.754;2022-12-22T10:56:58;9.20;;;4.13;;
3561;SDS011;1795;52.074;4.754;2022-12-22T10:59:27;11.15;;;4.50;;
3561;SDS011;1795;52.074;4.754;2022-12-22T11:04:52;8.10;;;5.10;;
3561;SDS011;1795;52.074;4.754;2022-12-22T11:07:21;13.10;;;4.60;;
3561;SDS011;1795;52.074;4.754;2022-12-22T11:09:50;10.30;;;4.40;;
3561;SDS011;1795;52.074;4.754;2022-12-22T11:12:20;14.30;;;5.47;;
3561;SDS011;1795;52.074;4.754;2022-12-22T11:14:58;8.68;;;4.93;;
3561;SDS011;1795;52.074;4.754;2022-12-22T11:17:35;12.45;;;4.50;;
3561;SDS011;1795;52.074;4.754;2022-12-22T11:20:39;6.75;;;4.78;;
3561;SDS011;1795;52.074;4.754;2022-12-22T11:23:19;17.50;;;5.70;;
3561;SDS011;1795;52.074;4.754;2022-12-22T11:25:59;9.18;;;4.82;;
3561;SDS011;1795;52.074;4.754;2022-12-22T11:28:40;11.13;;;5.05;;
3561;SDS011;1795;52.074;4.754;2022-12-22T11:31:21;13.10;;;5.80;;
3561;SDS011;1795;52.074;4.754;2022-12-22T11:34:08;8.77;;;5.45;;
3561;SDS011;1795;52.074;4.754;2022-12-22T11:36:52;9.63;;;5.50;;
3561;SDS011;1795;52.074;4.754;2022-12-22T11:39:33;9.18;;;4.53;;
3561;SDS011;1795;52.074;4.754;2022-12-22T11:42:08;9.50;;;4.88;;
3561;SDS011;1795;52.074;4.754;2022-12-22T11:44:51;10.43;;;5.70;;
3561;SDS011;1795;52.074;4.754;2022-12-22T11:47:26;14.57;;;7.30;;
3561;SDS011;1795;52.074;4.754;2022-12-22T11:50:06;8.60;;;7.30;;
3561;SDS011;1795;52.074;4.754;2022-12-22T11:53:17;17.27;;;9.10;;
3561;SDS011;1795;52.074;4.754;2022-12-22T11:56:03;15.63;;;10.82;;
3561;SDS011;1795;52.074;4.754;2022-12-22T11:58:44;19.23;;;11.45;;
3561;SDS011;1795;52.074;4.754;2022-12-22T12:01:33;22.60;;;14.23;;
3561;SDS011;1795;52.074;4.754;2022-12-22T12:07:17;27.83;;;13.55;;
3561;SDS011;1795;52.074;4.754;2022-12-22T12:09:54;32.10;;;15.68;;
3561;SDS011;1795;52.074;4.754;2022-12-22T12:12:31;28.85;;;15.40;;
3561;SDS011;1795;52.074;4.754;2022-12-22T12:15:08;29.33;;;15.80;;
3561;SDS011;1795;52.074;4.754;2022-12-22T12:17:49;32.35;;;14.73;;
3561;SDS011;1795;52.074;4.754;2022-12-22T12:20:50;26.52;;;14.63;;
3561;SDS011;1795;52.074;4.754;2022-12-22T12:23:34;32.50;;;14.45;;
3561;SDS011;1795;52.074;4.754;2022-12-22T12:26:16;30.45;;;15.55;;
3561;SDS011;1795;52.074;4.754;2022-12-22T12:28:50;31.55;;;16.05;;
3561;SDS011;1795;52.074;4.754;2022-12-22T12:31:27;29.75;;;14.80;;
3561;SDS011;1795;52.074;4.754;2022-12-22T12:34:01;26.73;;;13.38;;
3561;SDS011;1795;52.074;4.754;2022-12-22T12:36:30;33.15;;;14.60;;
3561;SDS011;1795;52.074;4.754;2022-12-22T12:39:10;31.75;;;14.82;;
3561;SDS011;1795;52.074;4.754;2022-12-22T12:41:48;32.35;;;14.57;;
3561;SDS011;1795;52.074;4.754;2022-12-22T12:44:25;31.63;;;14.73;;
3561;SDS011;1795;52.074;4.754;2022-12-22T12:49:52;33.92;;;15.77;;
3561;SDS011;1795;52.074;4.754;2022-12-22T12:55:32;31.70;;;15.40;;
3561;SDS011;1795;52.074;4.754;2022-12-22T13:04:27;28.73;;;15.97;;
3561;SDS011;1795;52.074;4.754;2022-12-22T13:10:40;38.85;;;18.00;;
3561;SDS011;1795;52.074;4.754;2022-12-22T13:13:11;38.00;;;18.48;;
3561;SDS011;1795;52.074;4.754;2022-12-22T13:18:57;37.35;;;19.35;;
3561;SDS011;1795;52.074;4.754;2022-12-22T13:21:29;35.85;;;18.58;;
3561;SDS011;1795;52.074;4.754;2022-12-22T13:24:20;36.92;;;19.95;;
3561;SDS011;1795;52.074;4.754;2022-12-22T13:26:53;40.30;;;20.80;;
3561;SDS011;1795;52.074;4.754;2022-12-22T13:29:28;33.65;;;18.95;;
3561;SDS011;1795;52.074;4.754;2022-12-22T13:32:11;39.08;;;19.90;;
3561;SDS011;1795;52.074;4.754;2022-12-22T13:34:45;38.95;;;20.15;;
3561;SDS011;1795;52.074;4.754;2022-12-22T13:37:39;40.40;;;21.23;;
3561;SDS011;1795;52.074;4.754;2022-12-22T13:40:11;37.28;;;20.27;;
3561;SDS011;1795;52.074;4.754;2022-12-22T13:42:44;32.03;;;19.13;;
3561;SDS011;1795;52.074;4.754;2022-12-22T13:45:18;39.65;;;20.73;;
3561;SDS011;1795;52.074;4.754;2022-12-22T13:47:55;40.95;;;20.30;;
3561;SDS011;1795;52.074;4.754;2022-12-22T13:50:26;32.63;;;19.80;;
3561;SDS011;1795;52.074;4.754;2022-12-22T13:52:59;38.05;;;20.88;;
3561;SDS011;1795;52.074;4.754;2022-12-22T13:55:29;36.53;;;18.80;;
3561;SDS011;1795;52.074;4.754;2022-12-22T13:58:02;33.95;;;18.50;;
3561;SDS011;1795;52.074;4.754;2022-12-22T14:00:34;39.60;;;19.60;;
3561;SDS011;1795;52.074;4.754;2022-12-22T14:03:03;31.55;;;19.30;;
3561;SDS011;1795;52.074;4.754;2022-12-22T14:06:05;37.13;;;19.50;;
3561;SDS011;1795;52.074;4.754;2022-12-22T14:08:45;36.33;;;19.10;;
3561;SDS011;1795;52.074;4.754;2022-12-22T14:11:13;38.25;;;19.52;;
3561;SDS011;1795;52.074;4.754;2022-12-22T14:13:43;36.97;;;19.77;;
3561;SDS011;1795;52.074;4.754;2022-12-22T14:16:11;38.10;;;19.92;;
3561;SDS011;1795;52.074;4.754;2022-12-22T14:18:40;40.50;;;19.92;;
3561;SDS011;1795;52.074;4.754;2022-12-22T14:21:09;32.58;;;19.05;;
3561;SDS011;1795;52.074;4.754;2022-12-22T14:23:38;38.45;;;20.75;;
3561;SDS011;1795;52.074;4.754;2022-12-22T14:26:11;34.40;;;19.20;;
3561;SDS011;1795;52.074;4.754;2022-12-22T14:28:45;36.97;;;20.30;;
3561;SDS011;1795;52.074;4.754;2022-12-22T14:31:18;35.00;;;21.00;;
3561;SDS011;1795;52.074;4.754;2022-12-22T14:33:49;39.30;;;20.50;;
3561;SDS011;1795;52.074;4.754;2022-12-22T14:36:20;39.00;;;20.80;;
3561;SDS011;1795;52.074;4.754;2022-12-22T14:38:50;37.38;;;19.75;;
3561;SDS011;1795;52.074;4.754;2022-12-22T14:41:23;35.38;;;20.90;;
3561;SDS011;1795;52.074;4.754;2022-12-22T14:44:14;38.20;;;20.60;;
3561;SDS011;1795;52.074;4.754;2022-12-22T14:46:47;41.10;;;21.90;;
3561;SDS011;1795;52.074;4.754;2022-12-22T14:49:31;37.97;;;20.75;;
3561;SDS011;1795;52.074;4.754;2022-12-22T14:52:02;42.22;;;21.42;;
3561;SDS011;1795;52.074;4.754;2022-12-22T14:54:34;40.00;;;21.05;;
3561;SDS011;1795;52.074;4.754;2022-12-22T14:57:03;38.35;;;21.73;;
3561;SDS011;1795;52.074;4.754;2022-12-22T14:59:47;42.58;;;21.50;;
3561;SDS011;1795;52.074;4.754;2022-12-22T15:02:26;39.43;;;22.00;;
3561;SDS011;1795;52.074;4.754;2022-12-22T15:05:09;44.17;;;22.67;;
3561;SDS011;1795;52.074;4.754;2022-12-22T15:07:45;42.45;;;22.30;;
3561;SDS011;1795;52.074;4.754;2022-12-22T15:10:35;38.05;;;22.02;;
3561;SDS011;1795;52.074;4.754;2022-12-22T15:13:06;49.75;;;23.45;;
3561;SDS011;1795;52.074;4.754;2022-12-22T15:15:41;47.60;;;22.83;;
3561;SDS011;1795;52.074;4.754;2022-12-22T15:18:10;42.00;;;23.50;;
3561;SDS011;1795;52.074;4.754;2022-12-22T15:20:40;42.22;;;22.05;;
3561;SDS011;1795;52.074;4.754;2022-12-22T15:23:10;44.83;;;21.67;;
3561;SDS011;1795;52.074;4.754;2022-12-22T15:25:42;41.30;;;22.35;;
3561;SDS011;1795;52.074;4.754;2022-12-22T15:28:10;40.15;;;22.20;;
3561;SDS011;1795;52.074;4.754;2022-12-22T15:30:38;52.05;;;23.85;;
3561;SDS011;1795;52.074;4.754;2022-12-22T15:33:10;43.60;;;24.10;;
3561;SDS011;1795;52.074;4.754;2022-12-22T15:35:40;42.85;;;23.30;;
3561;SDS011;1795;52.074;4.754;2022-12-22T15:38:09;52.00;;;25.95;;
3561;SDS011;1795;52.074;4.754;2022-12-22T15:40:40;48.70;;;25.70;;
3561;SDS011;1795;52.074;4.754;2022-12-22T15:43:08;50.42;;;26.10;;
3561;SDS011;1795;52.074;4.754;2022-12-22T15:45:56;48.95;;;26.88;;
3561;SDS011;1795;52.074;4.754;2022-12-22T15:48:27;44.73;;;25.03;;
3561;SDS011;1795;52.074;4.754;2022-12-22T15:50:58;53.33;;;26.33;;
3561;SDS011;1795;52.074;4.754;2022-12-22T15:53:27;47.38;;;25.58;;
3561;SDS011;1795;52.074;4.754;2022-12-22T15:55:56;46.97;;;26.15;;
3561;SDS011;1795;52.074;4.754;2022-12-22T15:58:24;49.60;;;26.75;;
3561;SDS011;1795;52.074;4.754;2022-12-22T16:00:54;47.40;;;24.65;;
3561;SDS011;1795;52.074;4.754;2022-12-22T16:03:22;46.15;;;25.42;;
3561;SDS011;1795;52.074;4.754;2022-12-22T16:05:52;50.58;;;25.88;;
3561;SDS011;1795;52.074;4.754;2022-12-22T16:08:21;54.40;;;26.02;;
3561;SDS011;1795;52.074;4.754;2022-12-22T16:10:53;47.58;;;26.63;;